Time;durP1;ratioP1;P1;durP2;ratioP2;P2;SDS_P1;SDS_P2;PMS_P1;PMS_P2;Temp;Humidity;BMP_temperature;BMP_pressure;BME280_temperature;BME280_humidity;BME280_pressure;Samples;Min_cycle;Max_cycle;Signal;HPM_P1;HPM_P2
2022/01/11 00:01:19;;;;;;;17.58;8.75;;;;;;;1.29;84.09;101157.38;4856952;29;20033;-74
2022/01/11 00:03:45;;;;;;;12.65;8.15;;;;;;;1.26;83.77;101151.31;4826408;29;20037;-74
2022/01/11 00:08:45;;;;;;;13.10;7.78;;;;;;;1.35;84.44;101157.19;4841754;29;20034;-75
2022/01/11 00:11:10;;;;;;;12.38;7.47;;;;;;;1.34;84.44;101158.97;4848558;29;20165;-74
2022/01/11 00:13:38;;;;;;;13.15;7.80;;;;;;;1.31;84.44;101160.84;4840629;29;20143;-74
2022/01/11 00:16:05;;;;;;;10.10;7.03;;;;;;;1.37;84.39;101171.16;4840926;29;20053;-75
2022/01/11 00:18:30;;;;;;;11.82;6.95;;;;;;;1.38;84.51;101165.84;4842521;29;20062;-74
2022/01/11 00:20:56;;;;;;;14.07;7.65;;;;;;;1.38;84.42;101165.84;4840139;29;20045;-75
2022/01/11 00:25:48;;;;;;;13.68;7.30;;;;;;;1.35;83.75;101158.03;4855033;29;20042;-74
2022/01/11 00:28:16;;;;;;;14.90;6.68;;;;;;;1.34;84.16;101158.09;4825449;29;20078;-74
2022/01/11 00:30:43;;;;;;;13.23;6.90;;;;;;;1.31;84.26;101159.06;4825260;29;20037;-74
2022/01/11 00:33:15;;;;;;;13.82;6.95;;;;;;;1.30;83.71;101159.97;4840438;29;20151;-74
2022/01/11 00:35:43;;;;;;;15.50;7.03;;;;;;;1.26;83.80;101161.84;4841755;29;20053;-74
2022/01/11 00:38:10;;;;;;;12.77;6.77;;;;;;;1.29;84.53;101160.88;4824353;29;20038;-75
2022/01/11 00:40:36;;;;;;;12.68;6.13;;;;;;;1.31;84.44;101158.19;4840185;29;21249;-75
2022/01/11 00:43:04;;;;;;;10.73;6.47;;;;;;;1.26;83.74;101151.31;4840488;29;20041;-74
2022/01/11 00:45:30;;;;;;;12.75;6.57;;;;;;;1.26;84.66;101153.06;4855346;29;20113;-74
2022/01/11 00:47:56;;;;;;;13.18;7.25;;;;;;;1.31;84.58;101150.28;4824842;29;20046;-74
2022/01/11 00:50:21;;;;;;;12.82;6.90;;;;;;;1.27;84.82;101157.44;4838333;29;20034;-75
2022/01/11 00:52:47;;;;;;;11.82;6.57;;;;;;;1.29;84.17;101160.88;4838875;29;20041;-75
2022/01/11 00:55:13;;;;;;;11.23;6.80;;;;;;;1.27;84.70;101154.81;4839152;29;20038;-75
2022/01/11 00:57:38;;;;;;;11.20;6.47;;;;;;;1.25;83.72;101157.47;4838444;29;20040;-75
2022/01/11 01:00:11;;;;;;;14.18;7.05;;;;;;;1.25;84.37;101152.22;4824952;29;20105;-75
2022/01/11 01:02:39;;;;;;;10.52;6.38;;;;;;;1.27;84.25;101157.44;4840860;29;20042;-75
2022/01/11 01:05:05;;;;;;;13.48;7.45;;;;;;;1.22;84.29;101159.34;4839579;29;20063;-75
2022/01/11 01:07:31;;;;;;;13.32;6.88;;;;;;;1.22;84.48;101157.59;4840060;29;20110;-74
2022/01/11 01:10:04;;;;;;;11.20;6.93;;;;;;;1.22;84.48;101159.34;4831137;29;20053;-75
2022/01/11 01:12:30;;;;;;;12.18;6.80;;;;;;;1.22;84.00;101165.50;4840809;29;20082;-75
2022/01/11 01:14:55;;;;;;;10.15;6.50;;;;;;;1.23;84.45;101166.34;4840068;29;20061;-74
2022/01/11 01:17:21;;;;;;;16.40;6.97;;;;;;;1.22;83.58;101172.53;4840019;29;20041;-75
2022/01/11 01:19:46;;;;;;;13.90;7.20;;;;;;;1.19;83.99;101176.13;4840162;29;20101;-75
2022/01/11 01:22:12;;;;;;;11.75;6.72;;;;;;;1.18;83.70;101179.66;4839076;29;20056;-75
2022/01/11 01:24:38;;;;;;;11.35;6.35;;;;;;;1.19;83.53;101183.16;4840006;29;20037;-74
2022/01/11 01:27:04;;;;;;;13.23;7.25;;;;;;;1.11;83.45;101183.41;4855640;29;20030;-75
2022/01/11 01:29:29;;;;;;;14.10;7.25;;;;;;;1.17;84.02;101182.34;4818285;29;20054;-75
2022/01/11 01:31:55;;;;;;;12.00;6.93;;;;;;;1.13;83.77;101184.22;4813239;29;20034;-75
2022/01/11 01:34:23;;;;;;;12.52;6.07;;;;;;;1.07;82.97;101192.31;4829607;29;21373;-75
2022/01/11 01:36:49;;;;;;;13.35;6.60;;;;;;;1.07;83.39;101192.31;4829417;29;20042;-75
2022/01/11 01:39:14;;;;;;;11.88;7.10;;;;;;;1.08;83.02;101187.91;4829236;29;20059;-74
2022/01/11 01:41:43;;;;;;;12.38;6.57;;;;;;;1.08;83.39;101194.03;4828257;29;20152;-75
2022/01/11 01:44:09;;;;;;;10.40;6.28;;;;;;;1.13;83.27;101199.16;4828626;29;20047;-74
2022/01/11 01:46:34;;;;;;;12.93;6.22;;;;;;;1.13;83.71;101201.78;4828618;29;20460;-74
2022/01/11 01:49:01;;;;;;;11.88;6.55;;;;;;;1.14;83.17;101203.53;4813914;29;20051;-75
2022/01/11 01:51:28;;;;;;;10.95;5.97;;;;;;;1.10;83.33;101201.88;4827979;29;20868;-75
2022/01/11 01:53:54;;;;;;;8.98;5.90;;;;;;;1.12;83.05;101210.59;4828212;29;20034;-75
2022/01/11 01:56:22;;;;;;;10.80;5.88;;;;;;;1.07;83.18;101210.75;4828233;29;20134;-74
2022/01/11 01:58:48;;;;;;;9.70;5.78;;;;;;;1.03;82.87;101218.78;4814326;29;20103;-75
2022/01/11 02:01:14;;;;;;;11.23;5.85;;;;;;;1.02;82.62;101210.03;4827727;29;20046;-75
2022/01/11 02:03:41;;;;;;;9.45;5.57;;;;;;;1.00;82.17;101209.22;4828659;29;20073;-74
2022/01/11 02:06:08;;;;;;;9.90;6.15;;;;;;;1.02;83.22;101210.03;4828864;29;20034;-74
2022/01/11 02:08:35;;;;;;;9.80;5.55;;;;;;;1.04;82.94;101213.47;4813412;29;20565;-74
2022/01/11 02:11:01;;;;;;;12.30;6.13;;;;;;;1.04;82.27;101221.38;4831318;29;20034;-75
2022/01/11 02:13:27;;;;;;;10.55;5.15;;;;;;;1.03;82.19;101209.13;4832147;29;20046;-74
2022/01/11 02:15:53;;;;;;;9.05;5.63;;;;;;;1.03;82.57;101211.75;4832069;29;20120;-74
2022/01/11 02:18:23;;;;;;;9.43;5.78;;;;;;;0.98;82.47;101216.31;4816702;29;20453;-76
2022/01/11 02:20:50;;;;;;;9.15;6.25;;;;;;;0.96;81.87;101228.66;4831962;29;20030;-75
2022/01/11 02:23:17;;;;;;;11.80;5.35;;;;;;;0.96;82.17;101227.78;4832165;29;20050;-75
2022/01/11 02:25:43;;;;;;;10.02;5.57;;;;;;;0.93;81.70;101233.97;4832171;29;20057;-74
2022/01/11 02:28:12;;;;;;;13.82;5.53;;;;;;;0.96;82.43;101238.31;4834730;29;20034;-75
2022/01/11 02:30:37;;;;;;;9.55;5.55;;;;;;;1.00;81.97;101237.31;4842213;29;20068;-75
2022/01/11 02:33:06;;;;;;;10.05;5.38;;;;;;;1.04;81.69;101238.94;4842902;29;20065;-75
2022/01/11 02:35:33;;;;;;;9.25;5.05;;;;;;;1.05;82.25;101245.94;4843108;29;20069;-75
2022/01/11 02:37:59;;;;;;;9.60;5.47;;;;;;;1.06;82.14;101243.25;4841411;29;20205;-74
2022/01/11 02:40:25;;;;;;;9.70;5.55;;;;;;;0.88;81.91;101264.84;4841620;29;20095;-74
2022/01/11 02:42:50;;;;;;;13.60;6.25;;;;;;;0.71;81.83;101261.84;4849144;29;20030;-75
2022/01/11 02:45:17;;;;;;;11.70;6.13;;;;;;;0.82;83.07;101258.00;4842170;29;20875;-74
2022/01/11 02:47:47;;;;;;;10.23;5.80;;;;;;;0.90;83.33;101252.50;4826594;29;20038;-75
2022/01/11 02:50:14;;;;;;;11.68;5.93;;;;;;;0.85;82.56;101262.31;4848155;29;20030;-75
2022/01/11 02:52:39;;;;;;;11.10;6.53;;;;;;;0.74;82.76;101253.84;4841004;29;20033;-75
2022/01/11 02:55:12;;;;;;;9.50;6.30;;;;;;;0.83;82.72;101257.09;4841862;29;20085;-75
2022/01/11 02:57:40;;;;;;;10.13;6.47;;;;;;;0.86;83.08;101257.00;4843632;29;20034;-74
2022/01/11 03:00:12;;;;;;;9.40;6.17;;;;;;;0.96;82.54;101254.97;4850185;29;20412;-74
2022/01/11 03:02:37;;;;;;;11.40;6.35;;;;;;;0.96;82.75;101248.84;4857993;29;20097;-75
2022/01/11 03:05:05;;;;;;;11.48;6.28;;;;;;;0.89;82.33;101253.41;4857844;29;20073;-75
2022/01/11 03:07:31;;;;;;;10.68;6.07;;;;;;;0.81;81.47;101248.38;4855582;29;20053;-74
2022/01/11 03:10:05;;;;;;;11.93;6.65;;;;;;;0.79;82.06;101249.31;4841171;29;20075;-74
2022/01/11 03:12:31;;;;;;;11.23;6.40;;;;;;;0.82;81.75;101255.34;4834849;29;20499;-75
2022/01/11 03:14:57;;;;;;;13.77;6.70;;;;;;;0.81;81.62;101242.25;4840954;29;20038;-75
2022/01/11 03:17:22;;;;;;;10.45;6.43;;;;;;;0.74;82.19;101249.47;4841545;29;20060;-75
2022/01/11 03:19:48;;;;;;;13.48;6.40;;;;;;;0.74;81.39;101253.84;4857579;29;20065;-75
2022/01/11 03:22:14;;;;;;;12.05;6.20;;;;;;;0.75;81.26;101258.22;4834224;29;20093;-75
2022/01/11 03:24:39;;;;;;;10.02;5.45;;;;;;;0.77;81.56;101259.03;4842542;29;20070;-75
2022/01/11 03:27:07;;;;;;;10.65;6.10;;;;;;;0.82;82.07;101260.63;4842397;29;20049;-75
2022/01/11 03:29:37;;;;;;;9.57;6.18;;;;;;;0.88;82.58;101267.47;4856501;29;20109;-75
2022/01/11 03:32:04;;;;;;;10.48;5.97;;;;;;;0.88;81.46;101264.84;4826165;29;20049;-75
2022/01/11 03:34:30;;;;;;;13.38;6.10;;;;;;;0.88;81.54;101278.88;4857683;29;20042;-75
2022/01/11 03:36:57;;;;;;;10.77;5.93;;;;;;;0.90;81.35;101276.19;4841961;29;20046;-75
2022/01/11 03:39:24;;;;;;;12.52;6.38;;;;;;;0.89;81.51;101274.47;4842516;29;20064;-75
2022/01/11 03:41:51;;;;;;;12.48;5.95;;;;;;;0.83;81.69;101266.75;4827484;29;20041;-75
2022/01/11 03:44:17;;;;;;;11.48;5.78;;;;;;;0.76;81.41;101266.06;4827660;29;20057;-75
2022/01/11 03:46:42;;;;;;;8.38;5.32;;;;;;;0.77;81.07;101267.78;4840918;29;20128;-75
2022/01/11 03:49:08;;;;;;;11.20;6.00;;;;;;;0.81;81.20;101272.06;4857431;29;20042;-74
2022/01/11 03:51:37;;;;;;;9.95;6.10;;;;;;;0.85;81.73;101276.34;4841800;29;20109;-74
2022/01/11 03:54:09;;;;;;;11.70;5.15;;;;;;;0.78;81.37;101277.41;4842129;29;20342;-75
2022/01/11 03:56:35;;;;;;;10.90;5.80;;;;;;;0.74;81.24;101270.50;4842782;29;20033;-75
2022/01/11 03:59:06;;;;;;;11.05;5.40;;;;;;;0.76;81.22;101279.22;4839577;29;20093;-74
2022/01/11 04:01:32;;;;;;;9.27;5.78;;;;;;;0.83;81.32;101282.53;4841800;29;20409;-74
2022/01/11 04:03:57;;;;;;;10.27;6.15;;;;;;;0.84;81.64;101282.50;4857499;29;20064;-75
2022/01/11 04:06:25;;;;;;;9.35;5.30;;;;;;;0.85;82.01;101283.38;4855920;29;20034;-74
2022/01/11 04:08:51;;;;;;;10.80;6.32;;;;;;;0.84;81.82;101281.63;4841361;29;20057;-75
2022/01/11 04:11:19;;;;;;;8.05;5.80;;;;;;;0.80;80.98;101282.63;4854635;29;20052;-76
2022/01/11 04:13:45;;;;;;;12.68;6.03;;;;;;;0.74;81.09;101282.81;4826125;29;20521;-75
2022/01/11 04:16:11;;;;;;;8.80;5.50;;;;;;;0.74;80.51;101281.03;4839350;29;20046;-75
2022/01/11 04:18:37;;;;;;;11.23;5.43;;;;;;;0.78;81.57;101281.81;4855205;29;20064;-75
2022/01/11 04:21:03;;;;;;;11.18;5.57;;;;;;;0.81;81.34;101279.97;4838751;29;20042;-74
2022/01/11 04:23:29;;;;;;;11.38;5.78;;;;;;;0.83;81.19;101280.78;4841609;29;20026;-74
2022/01/11 04:25:55;;;;;;;10.82;6.00;;;;;;;0.80;80.92;101283.50;4840665;29;20044;-75
2022/01/11 04:28:23;;;;;;;11.75;6.15;;;;;;;0.77;80.93;101280.09;4825180;29;20053;-74
2022/01/11 04:30:49;;;;;;;8.45;6.05;;;;;;;0.71;80.31;101288.16;4840233;29;20048;-75
2022/01/11 04:33:15;;;;;;;10.10;5.88;;;;;;;0.75;80.61;101281.91;4848717;29;20037;-74
2022/01/11 04:35:43;;;;;;;7.68;5.68;;;;;;;0.75;80.98;101281.91;4840235;29;20037;-75
2022/01/11 04:38:08;;;;;;;8.00;5.87;;;;;;;0.74;80.69;101291.56;4841201;29;20052;-74
2022/01/11 04:40:34;;;;;;;10.07;5.80;;;;;;;0.75;80.54;101287.16;4839237;29;20030;-74
2022/01/11 04:42:59;;;;;;;9.52;6.00;;;;;;;0.78;81.01;101287.09;4855914;29;20142;-75
2022/01/11 04:45:27;;;;;;;11.00;6.00;;;;;;;0.82;81.16;101292.22;4825423;29;20037;-75
2022/01/11 04:47:56;;;;;;;12.38;6.38;;;;;;;0.76;80.53;101281.00;4856230;29;20048;-75
2022/01/11 04:50:22;;;;;;;;;;;;;;;0.78;80.52;101284.44;4825763;29;20017;-74
2022/01/11 04:52:47;;;;;;;7.72;5.35;;;;;;;0.76;80.64;101286.25;4839826;29;19980;-75
2022/01/11 04:55:13;;;;;;;7.82;5.63;;;;;;;0.75;80.11;101288.03;4843060;29;20029;-75
2022/01/11 04:57:38;;;;;;;7.78;4.53;;;;;;;0.73;79.91;101289.84;4856448;29;21036;-75
2022/01/11 05:00:05;;;;;;;7.45;4.50;;;;;;;0.75;81.32;101300.31;4839577;29;20041;-75
2022/01/11 05:02:30;;;;;;;13.45;5.38;;;;;;;0.74;80.76;101301.25;4824458;29;20094;-76
2022/01/11 05:04:55;;;;;;;9.27;5.40;;;;;;;0.74;80.75;101298.59;4855127;29;20057;-75
2022/01/11 05:07:21;;;;;;;11.45;5.47;;;;;;;0.76;80.53;101302.06;4841077;29;20098;-76
2022/01/11 05:09:46;;;;;;;8.77;4.90;;;;;;;0.73;80.32;101299.50;4841229;29;20091;-76
2022/01/11 05:12:12;;;;;;;8.98;4.60;;;;;;;0.67;80.22;101295.28;4839920;29;20043;-75
2022/01/11 05:14:37;;;;;;;8.27;4.97;;;;;;;0.70;80.68;101305.72;4846379;29;20044;-76
2022/01/11 05:17:02;;;;;;;8.52;5.00;;;;;;;0.67;79.92;101295.28;4859762;29;20064;-76
2022/01/11 05:19:28;;;;;;;11.75;5.35;;;;;;;0.68;81.00;101293.50;4839022;29;20060;-75
2022/01/11 05:21:53;;;;;;;8.18;4.53;;;;;;;0.72;79.91;101303.06;4823967;29;20156;-76
2022/01/11 05:24:19;;;;;;;7.75;4.65;;;;;;;0.74;80.73;101301.25;4855405;29;20065;-75
2022/01/11 05:26:45;;;;;;;8.40;4.30;;;;;;;0.72;79.93;101297.78;4854440;29;20065;-76
2022/01/11 05:29:10;;;;;;;7.38;4.72;;;;;;;0.72;80.00;101290.75;4855229;29;20064;-76
2022/01/11 05:31:35;;;;;;;9.65;4.65;;;;;;;0.73;80.14;101289.84;4838316;29;20044;-76
2022/01/11 05:34:01;;;;;;;8.55;4.80;;;;;;;0.76;80.58;101289.75;4837946;29;20029;-74
2022/01/11 05:36:27;;;;;;;8.65;4.80;;;;;;;0.75;80.43;101292.44;4839418;29;20078;-76
2022/01/11 05:38:52;;;;;;;8.77;4.78;;;;;;;0.76;80.75;101295.03;4838678;29;20140;-76
2022/01/11 05:41:18;;;;;;;7.60;4.53;;;;;;;0.77;80.42;101294.13;4854173;29;20049;-75
2022/01/11 05:43:43;;;;;;;9.15;4.47;;;;;;;0.77;80.79;101285.34;4839424;29;21038;-77
2022/01/11 05:46:08;;;;;;;9.27;4.95;;;;;;;0.75;80.71;101288.03;4838121;29;20428;-76
2022/01/11 05:48:34;;;;;;;7.85;4.40;;;;;;;0.78;80.39;101287.94;4854215;29;20038;-76
2022/01/11 05:51:00;;;;;;;6.80;4.38;;;;;;;0.80;80.23;101286.13;4839067;29;20036;-77
2022/01/11 05:53:25;;;;;;;9.90;4.45;;;;;;;0.79;80.75;101288.81;4854346;29;20049;-75
2022/01/11 05:55:51;;;;;;;8.40;4.45;;;;;;;0.78;80.34;101290.56;4837414;29;20049;-76
2022/01/11 05:58:16;;;;;;;7.32;3.80;;;;;;;0.81;80.77;101292.25;4840313;29;20218;-76
2022/01/11 06:00:42;;;;;;;6.43;3.63;;;;;;;0.81;81.11;101287.84;4849088;29;20072;-76
2022/01/11 06:03:07;;;;;;;6.60;3.67;;;;;;;0.85;81.42;101293.91;4824895;29;20508;-75
2022/01/11 06:05:37;;;;;;;4.30;3.25;;;;;;;0.85;80.90;101300.03;4840089;29;20068;-75
2022/01/11 06:08:03;;;;;;;5.68;3.33;;;;;;;0.82;80.96;101299.25;4838153;29;20205;-76
2022/01/11 06:10:28;;;;;;;4.88;2.50;;;;;;;0.83;80.75;101309.75;4837584;29;20105;-75
2022/01/11 06:12:54;;;;;;;5.63;2.83;;;;;;;0.82;80.79;101305.38;4856216;29;20037;-75
2022/01/11 06:15:19;;;;;;;6.18;3.03;;;;;;;0.83;81.09;101293.94;4853564;29;20898;-75
2022/01/11 06:17:48;;;;;;;4.95;2.58;;;;;;;0.88;81.92;101299.06;4823363;29;20040;-74
2022/01/11 06:20:14;;;;;;;5.85;2.45;;;;;;;0.88;80.90;101304.34;4837253;29;20046;-76
2022/01/11 06:22:39;;;;;;;5.07;2.80;;;;;;;0.83;80.20;101309.75;4853105;29;20038;-75
2022/01/11 06:25:06;;;;;;;5.07;2.67;;;;;;;0.86;80.97;101311.41;4838444;29;20037;-76
2022/01/11 06:27:32;;;;;;;4.75;2.97;;;;;;;0.90;81.32;101313.91;4837026;29;20038;-76
2022/01/11 06:29:58;;;;;;;3.58;2.42;;;;;;;0.89;81.17;101308.69;4851037;29;20471;-76
2022/01/11 06:32:23;;;;;;;3.88;2.40;;;;;;;0.89;81.31;101312.19;4853398;29;20094;-76
2022/01/11 06:34:49;;;;;;;4.13;2.20;;;;;;;0.85;81.22;101310.56;4852945;29;20040;-76
2022/01/11 06:37:15;;;;;;;3.40;2.35;;;;;;;0.93;81.80;101311.19;4856017;29;20057;-76
2022/01/11 06:39:41;;;;;;;4.30;2.40;;;;;;;0.93;82.02;101308.56;4824469;29;20066;-76
2022/01/11 06:42:07;;;;;;;4.15;2.47;;;;;;;0.95;82.38;101319.09;4833687;29;20042;-75
2022/01/11 06:44:34;;;;;;;5.47;2.58;;;;;;;0.96;81.46;101314.69;4820418;29;20049;-76
2022/01/11 06:47:03;;;;;;;5.53;2.55;;;;;;;0.94;81.58;101320.81;4837599;29;20033;-76
2022/01/11 06:49:30;;;;;;;4.85;2.47;;;;;;;0.92;82.22;101330.53;4853532;29;20128;-76
2022/01/11 06:51:57;;;;;;;4.18;2.30;;;;;;;0.93;82.03;101327.00;4836756;29;20094;-77
2022/01/11 06:54:23;;;;;;;5.88;3.08;;;;;;;0.94;81.57;101331.34;4837422;29;20041;-76
2022/01/11 06:56:50;;;;;;;5.75;2.60;;;;;;;0.92;82.43;101333.16;4856032;29;20037;-76
2022/01/11 06:59:20;;;;;;;5.45;2.58;;;;;;;0.91;82.10;101335.84;4835169;29;20030;-76
2022/01/11 07:01:46;;;;;;;5.38;2.53;;;;;;;0.92;81.68;101334.94;4841124;29;20030;-75
2022/01/11 07:04:11;;;;;;;5.53;2.17;;;;;;;0.94;82.05;101346.28;4839400;29;20085;-75
2022/01/11 07:06:37;;;;;;;5.22;2.60;;;;;;;0.90;81.76;101349.91;4825635;29;20038;-75
2022/01/11 07:09:03;;;;;;;3.83;2.50;;;;;;;0.88;81.69;101360.50;4842247;29;20050;-76
2022/01/11 07:11:29;;;;;;;4.70;2.60;;;;;;;0.93;81.82;101366.50;4825979;29;20049;-76
2022/01/11 07:13:55;;;;;;;5.95;2.63;;;;;;;0.87;82.13;101369.31;4855870;29;20094;-75
2022/01/11 07:16:20;;;;;;;8.50;4.28;;;;;;;0.83;81.28;101367.66;4858005;29;20033;-75
2022/01/11 07:18:47;;;;;;;7.68;3.63;;;;;;;0.84;82.62;101373.78;4840126;29;20037;-76
2022/01/11 07:21:13;;;;;;;6.30;3.72;;;;;;;0.76;82.19;101370.50;4854532;29;20047;-76
2022/01/11 07:23:38;;;;;;;6.10;4.28;;;;;;;0.76;81.75;101374.00;4849673;29;20053;-75
2022/01/11 07:26:07;;;;;;;5.80;3.17;;;;;;;0.83;81.99;101369.44;4853357;29;20066;-76
2022/01/11 07:28:32;;;;;;;5.30;3.53;;;;;;;0.78;81.82;101374.81;4826729;29;20501;-76
2022/01/11 07:30:58;;;;;;;6.88;3.97;;;;;;;0.79;81.97;101375.69;4832575;29;20053;-76
2022/01/11 07:33:23;;;;;;;5.82;3.90;;;;;;;0.83;81.89;101370.28;4840168;29;20033;-75
2022/01/11 07:35:49;;;;;;;5.95;3.53;;;;;;;0.77;81.04;101373.09;4827968;29;20066;-75
2022/01/11 07:38:14;;;;;;;6.57;3.38;;;;;;;0.83;82.38;101378.19;4824399;29;20048;-76
2022/01/11 07:40:40;;;;;;;7.05;3.47;;;;;;;0.77;81.71;101378.34;4827122;29;20132;-76
2022/01/11 07:43:05;;;;;;;6.80;3.80;;;;;;;0.75;81.42;101377.53;4841479;29;20233;-75
2022/01/11 07:45:31;;;;;;;11.90;6.53;;;;;;;0.78;81.55;101376.59;4825468;29;20040;-75
2022/01/11 07:47:56;;;;;;;10.20;5.68;;;;;;;0.84;82.45;101381.69;4839008;29;20396;-75
2022/01/11 07:50:22;;;;;;;13.13;7.22;;;;;;;0.80;82.07;101386.16;4821327;29;20042;-75
2022/01/11 07:52:48;;;;;;;9.52;5.25;;;;;;;0.83;82.69;101388.72;4857234;29;20066;-75
2022/01/11 07:55:14;;;;;;;9.68;5.53;;;;;;;0.87;82.81;101392.13;4824553;29;20034;-75
2022/01/11 07:57:40;;;;;;;9.35;4.70;;;;;;;0.87;82.09;101398.25;4840887;29;20483;-75
2022/01/11 08:00:07;;;;;;;11.15;5.45;;;;;;;0.83;82.23;101398.38;4840294;29;20034;-75
2022/01/11 08:02:32;;;;;;;7.57;4.30;;;;;;;0.80;82.26;101404.59;4856700;29;20040;-75
2022/01/11 08:05:00;;;;;;;6.78;4.15;;;;;;;0.74;81.52;101403.91;4852955;29;20033;-75
2022/01/11 08:07:26;;;;;;;8.77;4.68;;;;;;;0.80;81.78;101409.00;4832761;29;20097;-76
2022/01/11 08:09:51;;;;;;;7.78;4.28;;;;;;;0.79;82.18;101405.50;4854242;29;20075;-75
2022/01/11 08:12:16;;;;;;;7.88;4.15;;;;;;;0.77;81.78;101411.72;4838864;29;20034;-75
2022/01/11 08:14:42;;;;;;;7.40;4.38;;;;;;;0.78;81.86;101410.81;4854248;29;20077;-75
2022/01/11 08:17:08;;;;;;;8.32;4.35;;;;;;;0.77;81.65;101409.94;4856096;29;20042;-75
2022/01/11 08:19:33;;;;;;;6.50;4.03;;;;;;;0.78;82.53;101408.19;4838758;29;20993;-75
2022/01/11 08:21:59;;;;;;;8.30;4.28;;;;;;;0.81;81.74;101411.59;4856579;29;20097;-75
2022/01/11 08:24:27;;;;;;;6.93;3.88;;;;;;;0.81;82.36;101410.72;4836715;29;20048;-75
2022/01/11 08:26:56;;;;;;;8.98;3.85;;;;;;;0.73;82.15;101410.94;4854528;29;20038;-75
2022/01/11 08:29:22;;;;;;;6.75;3.92;;;;;;;0.80;82.94;101412.50;4852881;29;20117;-75
2022/01/11 08:31:49;;;;;;;8.43;3.72;;;;;;;0.86;82.43;101417.59;4838658;29;20095;-75
2022/01/11 08:34:14;;;;;;;6.93;4.05;;;;;;;0.84;81.95;101421.19;4848721;29;20030;-75
2022/01/11 08:36:47;;;;;;;8.18;4.18;;;;;;;0.80;81.70;101419.53;4837820;29;20045;-75
2022/01/11 08:39:13;;;;;;;6.18;4.47;;;;;;;0.83;81.96;101435.25;4848412;29;20033;-75
2022/01/11 08:41:39;;;;;;;6.88;4.22;;;;;;;0.83;82.26;101429.97;4855508;29;20037;-76
2022/01/11 08:44:06;;;;;;;9.65;4.75;;;;;;;0.87;82.53;101432.50;4852242;29;20455;-75
2022/01/11 08:46:31;;;;;;;8.65;4.93;;;;;;;0.91;82.94;101428.88;4853084;29;20033;-75
2022/01/11 08:48:57;;;;;;;7.70;4.60;;;;;;;0.94;82.94;101438.47;4832720;29;20042;-75
2022/01/11 08:51:24;;;;;;;8.93;4.30;;;;;;;0.97;83.33;101445.44;4833730;29;20037;-75
2022/01/11 08:53:49;;;;;;;7.35;4.03;;;;;;;1.00;82.54;101442.72;4838242;29;20048;-75
2022/01/11 08:56:15;;;;;;;6.68;4.22;;;;;;;1.02;83.09;101439.16;4857355;29;20038;-75
2022/01/11 08:58:41;;;;;;;9.15;4.05;;;;;;;1.05;82.99;101446.97;4853739;29;20058;-75
2022/01/11 09:01:06;;;;;;;6.63;3.42;;;;;;;1.06;83.14;101448.69;4837649;29;20460;-75
2022/01/11 09:03:32;;;;;;;6.65;3.60;;;;;;;1.06;82.69;101446.06;4821889;29;20030;-75
2022/01/11 09:05:57;;;;;;;6.70;3.33;;;;;;;1.12;83.06;101437.13;4837070;29;20042;-75
2022/01/11 09:08:23;;;;;;;5.60;2.97;;;;;;;1.13;83.61;101442.34;4836948;29;20094;-75
2022/01/11 09:10:48;;;;;;;5.82;2.92;;;;;;;1.15;83.61;101444.94;4836120;29;20044;-76
2022/01/11 09:13:15;;;;;;;7.85;3.63;;;;;;;1.09;84.10;101442.47;4836127;29;20033;-75
2022/01/11 09:15:40;;;;;;;10.30;5.45;;;;;;;1.06;84.15;101447.81;4853317;29;20042;-75
2022/01/11 09:18:06;;;;;;;10.73;4.07;;;;;;;1.03;84.38;101451.41;4835041;29;20042;-75
2022/01/11 09:20:31;;;;;;;7.72;4.30;;;;;;;1.12;85.33;101448.53;4835585;29;20046;-75
2022/01/11 09:22:57;;;;;;;6.60;4.28;;;;;;;1.19;84.78;101444.81;4837384;29;20114;-75
2022/01/11 09:25:22;;;;;;;5.55;3.53;;;;;;;1.18;84.47;101451.00;4821930;29;20049;-75
2022/01/11 09:27:48;;;;;;;6.88;4.38;;;;;;;1.22;85.12;101452.63;4832631;29;20061;-75
2022/01/11 09:30:15;;;;;;;7.40;3.92;;;;;;;1.24;85.66;101452.59;4837178;29;20049;-75
2022/01/11 09:32:41;;;;;;;6.93;3.80;;;;;;;1.29;86.18;101449.84;4850423;29;20037;-75
2022/01/11 09:35:09;;;;;;;7.03;3.20;;;;;;;1.28;85.83;101451.59;4831875;29;20393;-75
2022/01/11 09:37:34;;;;;;;6.65;3.47;;;;;;;1.35;85.87;101453.16;4836327;29;20062;-75
2022/01/11 09:40:00;;;;;;;5.15;2.72;;;;;;;1.39;85.41;101454.78;4835550;29;20022;-75
2022/01/11 09:42:29;;;;;;;5.43;3.00;;;;;;;1.46;85.49;101451.13;4853683;29;20038;-75
2022/01/11 09:44:54;;;;;;;5.70;3.40;;;;;;;1.48;86.35;101444.03;4854025;29;20033;-75
2022/01/11 09:47:20;;;;;;;5.95;3.65;;;;;;;1.52;85.51;101444.81;4854019;29;20452;-75
2022/01/11 09:49:45;;;;;;;7.47;4.32;;;;;;;1.51;85.76;101443.06;4836539;29;20041;-75
2022/01/11 09:52:12;;;;;;;6.47;3.65;;;;;;;1.54;86.27;101443.84;4837336;29;20065;-75
2022/01/11 09:54:41;;;;;;;7.47;3.65;;;;;;;1.55;85.47;101442.94;4833099;29;20061;-75
2022/01/11 09:57:07;;;;;;;8.10;3.55;;;;;;;1.59;85.83;101441.06;4840995;29;20088;-75
2022/01/11 09:59:33;;;;;;;5.65;3.50;;;;;;;1.58;85.52;101440.22;4849399;29;20030;-75
2022/01/11 10:01:59;;;;;;;7.47;3.53;;;;;;;1.63;86.38;101448.00;4820141;29;20117;-75
2022/01/11 10:04:27;;;;;;;6.72;2.97;;;;;;;1.67;85.58;101440.84;4819353;29;20117;-75
2022/01/11 10:07:06;;;;;;;5.60;3.03;;;;;;;1.70;86.27;101438.97;4824380;29;20125;-75
2022/01/11 10:09:43;;;;;;;5.32;2.92;;;;;;;1.73;85.98;101433.63;4853385;29;20030;-76
2022/01/11 10:12:10;;;;;;;7.90;3.40;;;;;;;1.76;85.62;101437.94;4835846;29;20038;-75
2022/01/11 10:14:38;;;;;;;4.78;2.70;;;;;;;1.80;85.63;101442.22;4851074;29;20049;-75
2022/01/11 10:17:25;;;;;;;4.78;2.88;;;;;;;1.79;85.87;101443.97;4837941;29;20026;-75
2022/01/11 10:20:10;;;;;;;8.88;3.20;;;;;;;1.81;85.51;101443.94;4852727;29;20068;-75
2022/01/11 10:22:51;;;;;;;4.85;3.10;;;;;;;1.84;86.00;101452.63;4851688;29;20404;-75
2022/01/11 10:25:17;;;;;;;16.48;8.30;;;;;;;1.88;86.05;101458.66;4851286;29;20047;-75
2022/01/11 10:27:42;;;;;;;9.27;5.10;;;;;;;1.86;85.86;101456.06;4836396;29;20037;-75
2022/01/11 10:30:11;;;;;;;7.13;4.13;;;;;;;1.91;85.68;101463.88;4848007;29;20057;-75
2022/01/11 10:32:41;;;;;;;10.50;5.70;;;;;;;1.93;85.65;101463.84;4839944;29;20042;-75
2022/01/11 10:35:13;;;;;;;8.63;4.78;;;;;;;1.92;85.19;101457.69;4857741;29;20034;-75
2022/01/11 10:37:41;;;;;;;8.60;4.65;;;;;;;1.95;84.68;101459.38;4837873;29;20041;-75
2022/01/11 10:40:08;;;;;;;10.15;5.25;;;;;;;1.94;85.53;101452.38;4843105;29;20035;-75
2022/01/11 10:42:38;;;;;;;7.68;4.32;;;;;;;1.94;85.85;101460.28;4836743;29;20070;-75
2022/01/11 10:45:09;;;;;;;6.97;3.88;;;;;;;1.98;85.92;101460.16;4841304;29;20056;-75
2022/01/11 10:47:37;;;;;;;7.55;3.90;;;;;;;2.00;85.99;101455.69;4828662;29;20049;-75
2022/01/11 10:50:07;;;;;;;6.30;4.13;;;;;;;2.06;86.90;101449.34;4840868;29;20492;-75
2022/01/11 10:52:34;;;;;;;9.15;4.68;;;;;;;2.05;87.13;101447.63;4839601;29;20052;-75
2022/01/11 10:55:02;;;;;;;9.15;5.63;;;;;;;2.08;86.82;101451.03;4856569;29;20476;-75
2022/01/11 10:57:31;;;;;;;10.13;5.70;;;;;;;2.09;86.90;101462.44;4842850;29;20128;-75
2022/01/11 11:00:37;;;;;;;6.43;4.53;;;;;;;2.13;86.04;101462.31;4824282;29;20050;-75
2022/01/11 11:03:14;;;;;;;4.90;2.83;;;;;;;2.11;86.03;101456.22;4843016;29;20045;-76
2022/01/11 11:05:47;;;;;;;4.00;2.30;;;;;;;2.10;85.75;101454.50;4851865;29;20182;-76
2022/01/11 11:08:18;;;;;;;2.70;1.80;;;;;;;2.14;85.48;101452.63;4856006;29;20041;-75
2022/01/11 11:11:05;;;;;;;2.60;1.70;;;;;;;2.17;85.36;101455.16;4856826;29;20041;-77
2022/01/11 11:13:35;;;;;;;5.43;1.77;;;;;;;2.14;84.80;101464.03;4824103;29;20474;-75
2022/01/11 11:16:25;;;;;;;5.00;2.10;;;;;;;2.18;84.93;101462.16;4856109;29;20029;-75
2022/01/11 11:18:57;;;;;;;4.30;2.17;;;;;;;2.19;85.23;101462.13;4826913;29;20093;-75
2022/01/11 11:21:32;;;;;;;2.95;1.77;;;;;;;2.19;84.79;101455.97;4856415;29;20041;-75
2022/01/11 11:24:00;;;;;;;5.78;1.90;;;;;;;2.21;84.82;101467.34;4823608;29;20026;-75
2022/01/11 11:26:31;;;;;;;3.45;1.73;;;;;;;2.25;84.99;101462.84;4842929;29;20037;-75
2022/01/11 11:28:57;;;;;;;2.40;1.50;;;;;;;2.21;84.83;101460.28;4822233;29;20061;-76
2022/01/11 11:31:24;;;;;;;3.72;1.58;;;;;;;2.23;84.82;101462.88;4823878;29;20060;-76
2022/01/11 11:33:50;;;;;;;4.32;1.73;;;;;;;2.28;84.69;101463.59;4841788;29;20038;-76
2022/01/11 11:36:17;;;;;;;2.47;1.35;;;;;;;2.30;84.29;101460.91;4855665;29;20112;-75